Time;durP1;ratioP1;P1;durP2;ratioP2;P2;SDS_P1;SDS_P2;PMS_P1;PMS_P2;Temp;Humidity;BMP_temperature;BMP_pressure;BME280_temperature;BME280_humidity;BME280_pressure;Samples;Min_cycle;Max_cycle;Signal;HPM_P1;HPM_P2
2022/01/24 00:01:57;;;;;;;0.80;0.80;;;3.00;99.90;;;;;;5093846;28;20196;-77
2022/01/24 00:04:23;;;;;;;0.30;0.30;;;3.10;99.90;;;;;;5075725;28;20191;-77
2022/01/24 00:06:49;;;;;;;2.10;2.00;;;3.10;99.90;;;;;;5087435;28;20213;-77
2022/01/24 00:09:15;;;;;;;0.10;0.10;;;3.10;99.90;;;;;;5093577;28;20175;-77
2022/01/24 00:17:16;;;;;;;0.30;0.30;;;2.90;99.90;;;;;;5096417;28;20818;-78
2022/01/24 00:27:54;;;;;;;1.77;1.70;;;2.90;99.90;;;;;;5081027;28;20213;-78
2022/01/24 00:30:19;;;;;;;0.77;0.77;;;2.90;99.90;;;;;;5077389;28;20654;-79
2022/01/24 00:32:45;;;;;;;0.60;0.60;;;2.90;99.90;;;;;;5093204;28;20197;-78
2022/01/24 00:35:12;;;;;;;0.70;0.70;;;2.90;99.90;;;;;;5093486;28;20531;-78
2022/01/24 00:37:38;;;;;;;1.70;1.53;;;2.90;99.90;;;;;;5093768;28;20198;-78
2022/01/24 00:40:05;;;;;;;0.67;0.67;;;2.90;99.90;;;;;;5092530;28;20650;-78
2022/01/24 00:42:37;;;;;;;0.47;0.30;;;2.90;99.90;;;;;;5092581;28;20586;-78
2022/01/24 00:55:42;;;;;;;0.00;0.00;;;2.70;99.90;;;;;;5092805;28;20252;-78
2022/01/24 00:58:08;;;;;;;0.67;0.67;;;2.70;99.90;;;;;;5092072;28;20196;-79
2022/01/24 01:00:34;;;;;;;0.13;0.13;;;2.60;99.90;;;;;;5092291;28;20169;-78
2022/01/24 01:03:00;;;;;;;0.83;0.67;;;2.60;99.90;;;;;;5074976;28;20689;-80
2022/01/24 01:18:46;;;;;;;0.60;0.60;;;2.50;99.90;;;;;;5078456;28;20217;-76
2022/01/24 01:21:14;;;;;;;0.23;0.20;;;2.50;99.90;;;;;;5053637;28;20602;-78
2022/01/24 01:23:53;;;;;;;0.63;0.47;;;2.40;99.90;;;;;;5056858;28;20200;-78
2022/01/24 01:26:36;;;;;;;0.40;0.40;;;2.30;99.90;;;;;;5057376;28;20227;-78
2022/01/24 01:29:11;;;;;;;1.67;1.57;;;2.40;99.90;;;;;;5075117;28;20176;-78
2022/01/24 01:31:50;;;;;;;0.10;0.10;;;2.30;99.90;;;;;;5075088;28;20176;-78
2022/01/24 01:55:41;;;;;;;0.30;0.30;;;2.10;99.90;;;;;;5097836;28;20252;-77
2022/01/24 01:58:13;;;;;;;2.07;1.53;;;2.20;99.90;;;;;;5097591;28;20238;-78
2022/01/24 02:00:43;;;;;;;0.00;0.00;;;2.20;99.90;;;;;;5079741;28;20186;-77
2022/01/24 02:03:08;;;;;;;0.30;0.30;;;2.20;99.90;;;;;;5097735;28;20252;-79
2022/01/24 02:05:36;;;;;;;0.23;0.23;;;2.20;99.90;;;;;;5098861;28;20653;-77
2022/01/24 02:08:01;;;;;;;0.50;0.50;;;2.20;99.90;;;;;;5081557;28;20246;-77
2022/01/24 02:10:27;;;;;;;0.40;0.33;;;2.20;99.90;;;;;;5097625;28;20250;-79
2022/01/24 02:12:55;;;;;;;0.30;0.30;;;2.20;99.90;;;;;;5080086;28;20184;-76
2022/01/24 02:15:33;;;;;;;0.20;0.20;;;2.10;99.90;;;;;;5079932;28;20180;-78
2022/01/24 02:18:09;;;;;;;1.33;0.73;;;2.10;99.90;;;;;;5098440;28;20211;-77
2022/01/24 02:25:54;;;;;;;2.13;1.53;;;1.90;99.90;;;;;;5098372;28;20207;-77
2022/01/24 02:28:22;;;;;;;0.40;0.40;;;1.80;99.90;;;;;;5082646;28;20262;-78
2022/01/24 02:33:16;;;;;;;0.20;0.20;;;1.80;99.90;;;;;;5099837;28;20174;-78
2022/01/24 02:35:42;;;;;;;0.20;0.20;;;1.80;99.90;;;;;;5097816;28;20183;-77
2022/01/24 02:38:19;;;;;;;0.63;0.63;;;1.80;99.90;;;;;;5080431;28;20573;-78
2022/01/24 02:46:00;;;;;;;1.10;1.00;;;1.70;99.90;;;;;;5098025;28;20202;-78
2022/01/24 02:48:58;;;;;;;0.10;0.10;;;1.60;99.90;;;;;;5095243;28;20191;-77
2022/01/24 02:54:24;;;;;;;0.60;0.60;;;1.50;99.90;;;;;;5080714;28;20195;-77
2022/01/24 02:56:50;;;;;;;0.47;0.47;;;1.50;99.90;;;;;;5094170;28;20238;-77
2022/01/24 02:59:16;;;;;;;3.93;1.43;;;1.50;99.90;;;;;;5094244;28;20261;-77
2022/01/24 03:01:43;;;;;;;0.10;0.10;;;1.50;99.90;;;;;;5093601;28;20187;-77
2022/01/24 03:04:09;;;;;;;0.20;0.20;;;1.50;99.90;;;;;;5094369;28;20186;-78
2022/01/24 03:06:35;;;;;;;0.30;0.30;;;1.40;99.90;;;;;;5090637;28;20208;-78
2022/01/24 03:09:02;;;;;;;0.10;0.10;;;1.40;99.90;;;;;;5076198;28;20600;-76
2022/01/24 03:11:48;;;;;;;0.53;0.53;;;1.40;99.90;;;;;;5093465;28;20233;-76
2022/01/24 03:14:14;;;;;;;1.20;1.17;;;1.40;99.90;;;;;;5093683;28;20181;-77
2022/01/24 03:16:39;;;;;;;0.83;0.83;;;1.30;99.90;;;;;;5075554;28;20204;-77
2022/01/24 03:19:05;;;;;;;0.20;0.20;;;1.20;99.90;;;;;;5093620;28;20327;-76
2022/01/24 03:21:30;;;;;;;0.73;0.73;;;1.20;99.90;;;;;;5075097;28;20198;-76
2022/01/24 03:23:56;;;;;;;2.07;1.97;;;1.20;99.90;;;;;;5093503;28;20180;-76
2022/01/24 03:26:21;;;;;;;0.50;0.50;;;1.20;99.90;;;;;;5093249;28;20242;-77
2022/01/24 03:28:47;;;;;;;0.00;0.00;;;1.10;99.90;;;;;;5093685;28;20238;-77
2022/01/24 03:31:12;;;;;;;0.00;0.00;;;1.00;99.90;;;;;;5075347;28;20180;-77
2022/01/24 03:33:38;;;;;;;1.30;1.27;;;1.00;99.90;;;;;;5111289;22;20349;-73
2022/01/24 03:36:03;;;;;;;0.70;0.60;;;1.00;99.90;;;;;;5071961;28;20189;-75
2022/01/24 03:38:29;;;;;;;0.20;0.20;;;1.00;99.90;;;;;;5071934;28;20169;-75
2022/01/24 03:40:55;;;;;;;0.00;0.00;;;1.00;99.90;;;;;;5071605;28;20191;-76
2022/01/24 03:43:20;;;;;;;0.47;0.47;;;1.10;99.90;;;;;;5073175;28;20204;-76
2022/01/24 03:45:58;;;;;;;1.20;0.70;;;1.10;99.90;;;;;;5092214;28;20665;-75
2022/01/24 03:48:38;;;;;;;0.77;0.77;;;1.10;99.90;;;;;;5091995;28;20178;-75
2022/01/24 03:51:03;;;;;;;0.43;0.43;;;1.10;99.90;;;;;;5092057;28;20172;-75
2022/01/24 03:53:29;;;;;;;0.50;0.50;;;1.20;99.90;;;;;;5073615;28;20264;-75
2022/01/24 03:55:54;;;;;;;1.03;0.40;;;1.20;99.90;;;;;;5091640;28;20674;-75
2022/01/24 03:58:20;;;;;;;0.23;0.23;;;1.30;99.90;;;;;;5091904;28;20265;-75
2022/01/24 04:00:46;;;;;;;0.53;0.53;;;1.30;99.90;;;;;;5073805;28;20556;-76
2022/01/24 04:03:11;;;;;;;0.10;0.10;;;1.40;99.90;;;;;;5073275;28;20180;-76
2022/01/24 04:05:37;;;;;;;0.00;0.00;;;1.40;99.90;;;;;;5092125;28;20178;-76
2022/01/24 04:08:03;;;;;;;0.00;0.00;;;1.50;99.90;;;;;;5072922;28;20216;-76
2022/01/24 04:10:29;;;;;;;0.77;0.77;;;1.50;99.90;;;;;;5071597;28;20255;-76
2022/01/24 04:12:54;;;;;;;0.40;0.40;;;1.60;99.90;;;;;;5089793;28;20668;-75
2022/01/24 04:15:34;;;;;;;2.03;1.47;;;1.60;99.90;;;;;;5091735;28;20256;-76
2022/01/24 04:23:46;;;;;;;0.10;0.10;;;1.70;99.90;;;;;;5091452;28;20757;-76
2022/01/24 04:26:12;;;;;;;0.10;0.10;;;1.80;99.90;;;;;;5091546;28;20269;-76
2022/01/24 04:28:37;;;;;;;0.97;0.97;;;1.90;99.90;;;;;;5091628;28;20598;-76
2022/01/24 04:31:03;;;;;;;0.53;0.53;;;1.90;99.90;;;;;;5073399;28;20182;-74
2022/01/24 04:33:29;;;;;;;0.53;0.53;;;2.00;99.90;;;;;;5054125;28;1056124;-75
2022/01/24 04:35:55;;;;;;;0.00;0.00;;;2.00;99.90;;;;;;5092487;28;20182;-76
2022/01/24 04:38:20;;;;;;;1.73;1.63;;;2.20;99.90;;;;;;5092082;28;20525;-75
2022/01/24 04:40:46;;;;;;;0.20;0.20;;;2.30;99.90;;;;;;5091637;28;20191;-76
2022/01/24 04:43:31;;;;;;;0.53;0.53;;;2.40;99.90;;;;;;5091872;28;20186;-74
2022/01/24 04:46:14;;;;;;;0.93;0.93;;;2.40;99.90;;;;;;5092047;28;20178;-75
2022/01/24 04:51:35;;;;;;;0.23;0.23;;;2.40;99.90;;;;;;5071526;28;20183;-76
2022/01/24 04:56:29;;;;;;;0.00;0.00;;;2.50;99.90;;;;;;5074560;28;20265;-77
2022/01/24 04:58:55;;;;;;;3.00;2.53;;;2.50;99.90;;;;;;5091757;28;20322;-76
2022/01/24 05:01:20;;;;;;;0.77;0.73;;;2.50;99.90;;;;;;5073205;28;20554;-76
2022/01/24 05:03:46;;;;;;;1.17;1.17;;;2.50;99.90;;;;;;5091834;28;20738;-76
2022/01/24 05:06:11;;;;;;;0.10;0.10;;;2.60;99.90;;;;;;5088418;28;20294;-76
2022/01/24 05:08:37;;;;;;;1.60;1.50;;;2.50;99.90;;;;;;5070935;28;20250;-76
2022/01/24 05:11:08;;;;;;;0.27;0.27;;;2.50;99.90;;;;;;5074328;28;20184;-75
2022/01/24 05:24:30;;;;;;;2.10;1.23;;;1.80;99.90;;;;;;5071544;28;20209;-76
2022/01/24 05:26:56;;;;;;;0.33;0.33;;;1.60;99.90;;;;;;5053082;28;20253;-76
2022/01/24 05:29:22;;;;;;;1.00;0.90;;;1.50;99.90;;;;;;5071337;28;20194;-76
2022/01/24 05:31:48;;;;;;;0.20;0.20;;;1.40;99.90;;;;;;5052792;28;20657;-74
2022/01/24 05:34:14;;;;;;;0.97;0.40;;;1.30;99.90;;;;;;5071138;28;20218;-75
2022/01/24 05:36:39;;;;;;;0.37;0.37;;;1.20;99.90;;;;;;5051732;28;20308;-75
2022/01/24 05:39:05;;;;;;;0.43;0.43;;;1.20;99.90;;;;;;5053062;28;20198;-75
2022/01/24 05:41:31;;;;;;;0.50;0.50;;;1.10;99.90;;;;;;5084021;28;20188;-74
2022/01/24 05:43:57;;;;;;;0.90;0.90;;;1.00;99.90;;;;;;5091436;28;20222;-77
2022/01/24 05:46:23;;;;;;;1.23;1.03;;;0.90;99.90;;;;;;5091350;28;20256;-75
2022/01/24 05:48:48;;;;;;;1.77;1.67;;;0.80;99.90;;;;;;5073364;28;20247;-75
2022/01/24 05:51:14;;;;;;;0.10;0.10;;;0.80;99.90;;;;;;5091343;28;20203;-75
2022/01/24 05:53:40;;;;;;;0.10;0.10;;;0.70;99.90;;;;;;5072749;28;20202;-75
2022/01/24 05:56:05;;;;;;;0.60;0.50;;;0.60;99.90;;;;;;5091334;28;20177;-75
2022/01/24 05:58:31;;;;;;;1.67;1.60;;;0.60;99.90;;;;;;5091180;28;20646;-74
2022/01/24 06:00:56;;;;;;;1.20;0.77;;;0.60;99.90;;;;;;5090962;28;20177;-74
2022/01/24 06:03:22;;;;;;;0.00;0.00;;;0.50;99.90;;;;;;5090756;28;20258;-74
2022/01/24 06:05:47;;;;;;;1.17;0.43;;;0.50;99.90;;;;;;5091124;28;20251;-74
2022/01/24 06:08:13;;;;;;;2.30;1.07;;;0.50;99.90;;;;;;5091079;28;20207;-74
2022/01/24 06:10:39;;;;;;;0.37;0.37;;;0.50;99.90;;;;;;5090911;28;20223;-74
2022/01/24 06:13:06;;;;;;;1.30;1.30;;;0.50;99.90;;;;;;5084048;28;20192;-74
2022/01/24 06:15:33;;;;;;;0.10;0.10;;;0.50;99.90;;;;;;5070517;28;20165;-74
2022/01/24 06:17:59;;;;;;;0.20;0.20;;;0.50;99.90;;;;;;5071108;28;20298;-74
2022/01/24 06:20:24;;;;;;;0.40;0.40;;;0.50;99.90;;;;;;5074133;28;20189;-74
2022/01/24 06:22:50;;;;;;;0.77;0.77;;;0.50;99.90;;;;;;5074344;28;20185;-74
2022/01/24 06:25:21;;;;;;;0.03;0.03;;;0.60;99.90;;;;;;5074359;28;20330;-74
2022/01/24 06:27:46;;;;;;;0.10;0.10;;;0.60;99.90;;;;;;5074394;28;20255;-74
2022/01/24 06:30:12;;;;;;;0.40;0.40;;;0.60;99.90;;;;;;5074038;28;20256;-74
2022/01/24 06:32:38;;;;;;;3.17;1.17;;;0.60;99.90;;;;;;5074058;28;20216;-74
2022/01/24 06:35:05;;;;;;;0.60;0.50;;;0.60;99.90;;;;;;5074104;28;20219;-74
2022/01/24 06:37:30;;;;;;;1.07;1.03;;;0.60;99.90;;;;;;5056333;28;20192;-74
2022/01/24 06:39:56;;;;;;;0.60;0.60;;;0.50;99.90;;;;;;5073973;28;20181;-74
2022/01/24 06:42:23;;;;;;;0.23;0.23;;;0.50;99.90;;;;;;5073435;28;20220;-74
2022/01/24 06:44:53;;;;;;;0.10;0.10;;;0.50;99.90;;;;;;5074165;28;20209;-74
2022/01/24 06:47:20;;;;;;;0.70;0.47;;;0.40;99.90;;;;;;5055966;28;20242;-77
2022/01/24 06:49:45;;;;;;;0.30;0.30;;;0.40;99.90;;;;;;5073996;28;20291;-76
2022/01/24 06:52:13;;;;;;;5.83;3.13;;;0.40;99.90;;;;;;5055656;28;20679;-76
2022/01/24 06:54:41;;;;;;;0.27;0.27;;;0.40;99.90;;;;;;5073575;28;20231;-77
2022/01/24 06:57:08;;;;;;;0.80;0.80;;;0.30;99.90;;;;;;5074098;28;20184;-76
2022/01/24 06:59:35;;;;;;;1.27;1.23;;;0.30;99.90;;;;;;5055738;28;20185;-77
2022/01/24 07:02:00;;;;;;;0.33;0.33;;;0.20;99.90;;;;;;5073450;28;20191;-77
2022/01/24 07:04:26;;;;;;;0.53;0.53;;;0.20;99.90;;;;;;5076012;28;20205;-76
2022/01/24 07:06:51;;;;;;;1.20;1.20;;;0.00;99.90;;;;;;5085269;28;20197;-77
2022/01/24 07:09:17;;;;;;;0.80;0.80;;;-0.10;99.90;;;;;;5073345;28;20181;-76
2022/01/24 07:11:42;;;;;;;1.80;1.70;;;-0.10;99.90;;;;;;5081858;28;20219;-76
2022/01/24 07:14:12;;;;;;;0.43;0.43;;;-0.20;99.90;;;;;;5078537;28;20195;-77
2022/01/24 07:17:04;;;;;;;0.53;0.53;;;-0.20;99.90;;;;;;5073562;28;20299;-77
2022/01/24 07:19:32;;;;;;;0.27;0.27;;;-0.20;99.90;;;;;;5073230;28;20203;-76
2022/01/24 07:22:00;;;;;;;0.10;0.10;;;-0.20;99.90;;;;;;5073266;28;20185;-76
2022/01/24 07:24:26;;;;;;;0.30;0.30;;;-0.20;99.90;;;;;;5073076;28;20212;-76
2022/01/24 07:26:52;;;;;;;2.23;0.33;;;-0.20;99.90;;;;;;5055288;28;20693;-77
2022/01/24 07:29:18;;;;;;;1.77;1.67;;;-0.30;99.90;;;;;;5073197;28;20198;-77
2022/01/24 07:31:46;;;;;;;0.10;0.10;;;-0.30;99.90;;;;;;5072094;28;20493;-79
2022/01/24 07:34:12;;;;;;;0.00;0.00;;;-0.20;99.90;;;;;;5072810;28;20216;-75
2022/01/24 07:36:38;;;;;;;1.27;1.27;;;-0.20;99.90;;;;;;5073681;28;20193;-79
2022/01/24 07:39:03;;;;;;;0.80;0.80;;;-0.10;99.90;;;;;;5073386;28;20702;-74
2022/01/24 07:41:31;;;;;;;2.53;1.30;;;-0.10;99.90;;;;;;5072346;28;20627;-75
2022/01/24 07:43:57;;;;;;;3.97;1.60;;;-0.20;99.90;;;;;;5072856;28;20200;-75
2022/01/24 07:46:23;;;;;;;0.63;0.63;;;-0.10;99.90;;;;;;5072500;28;20259;-76
2022/01/24 07:48:49;;;;;;;0.00;0.00;;;-0.20;99.90;;;;;;5082265;28;20546;-75
2022/01/24 07:51:15;;;;;;;0.27;0.27;;;-0.20;99.90;;;;;;5093023;28;20176;-76
2022/01/24 07:53:42;;;;;;;2.57;2.37;;;0.00;99.90;;;;;;5092690;28;20196;-76
2022/01/24 07:56:08;;;;;;;0.47;0.47;;;0.20;99.90;;;;;;5089332;28;20168;-76
2022/01/24 07:58:33;;;;;;;0.37;0.37;;;0.30;99.90;;;;;;5083796;28;20180;-75
2022/01/24 08:00:59;;;;;;;1.17;1.17;;;0.50;99.90;;;;;;5092239;28;20588;-74
2022/01/24 08:03:26;;;;;;;1.60;1.23;;;0.60;99.90;;;;;;5092210;28;20241;-75
2022/01/24 08:05:52;;;;;;;0.83;0.73;;;0.70;99.90;;;;;;5091964;28;20302;-75
2022/01/24 08:08:18;;;;;;;0.20;0.20;;;0.90;99.90;;;;;;5072475;28;20687;-75
2022/01/24 08:10:44;;;;;;;2.93;0.73;;;1.10;99.90;;;;;;5072418;28;20180;-75
2022/01/24 08:13:09;;;;;;;1.70;0.83;;;1.30;99.90;;;;;;5071989;28;20263;-75
2022/01/24 08:15:35;;;;;;;1.93;1.83;;;1.40;99.90;;;;;;5072263;28;20559;-75
2022/01/24 08:18:00;;;;;;;1.70;1.60;;;1.50;99.90;;;;;;5072305;28;20232;-75
2022/01/24 08:20:26;;;;;;;1.50;1.50;;;1.60;99.90;;;;;;5072060;28;20532;-74
2022/01/24 08:22:52;;;;;;;1.40;1.40;;;1.70;99.90;;;;;;5071918;28;20528;-75
2022/01/24 08:25:18;;;;;;;1.13;1.00;;;1.80;99.90;;;;;;5054133;28;20231;-75
2022/01/24 08:27:43;;;;;;;0.20;0.20;;;1.90;99.90;;;;;;5054154;28;20583;-75
2022/01/24 08:30:12;;;;;;;2.73;0.93;;;2.10;99.90;;;;;;5064470;28;20178;-75
2022/01/24 08:32:39;;;;;;;1.93;1.83;;;2.20;99.90;;;;;;5071678;28;20643;-75
2022/01/24 08:35:05;;;;;;;0.83;0.83;;;2.30;99.90;;;;;;5071496;28;20220;-75
2022/01/24 08:37:31;;;;;;;2.97;2.87;;;2.30;99.90;;;;;;5053985;28;20212;-75
2022/01/24 08:39:58;;;;;;;1.20;1.20;;;2.40;99.90;;;;;;5053370;28;20263;-74
2022/01/24 08:42:33;;;;;;;0.73;0.73;;;2.50;99.90;;;;;;5070639;28;20181;-76
2022/01/24 08:47:31;;;;;;;1.90;1.80;;;2.80;99.90;;;;;;5071712;28;20231;-76
2022/01/24 08:49:58;;;;;;;1.70;1.60;;;2.80;99.90;;;;;;5071605;28;20267;-75
2022/01/24 08:52:25;;;;;;;0.40;0.40;;;2.90;99.90;;;;;;5071558;28;20245;-76
2022/01/24 08:54:52;;;;;;;9.77;2.67;;;3.00;99.90;;;;;;5053548;28;20211;-75
2022/01/24 08:57:21;;;;;;;1.80;1.57;;;3.10;99.90;;;;;;5071584;28;20186;-75
2022/01/24 08:59:48;;;;;;;2.07;1.97;;;3.30;99.90;;;;;;5071495;28;20700;-75
2022/01/24 09:02:13;;;;;;;0.70;0.70;;;3.40;99.90;;;;;;5071061;28;20668;-76
2022/01/24 09:04:39;;;;;;;6.20;2.77;;;3.60;99.90;;;;;;5075153;28;20206;-75
2022/01/24 09:07:05;;;;;;;0.60;0.60;;;3.60;99.90;;;;;;5081188;28;20216;-75
2022/01/24 09:09:34;;;;;;;1.27;1.27;;;3.70;99.90;;;;;;5071400;28;20182;-76
2022/01/24 09:12:05;;;;;;;5.73;1.50;;;3.80;99.90;;;;;;5064193;28;20735;-75
2022/01/24 09:14:31;;;;;;;2.90;2.70;;;3.90;99.90;;;;;;5091490;28;20194;-76
2022/01/24 09:16:56;;;;;;;0.63;0.63;;;3.90;99.90;;;;;;5082360;28;21300;-75
2022/01/24 09:19:22;;;;;;;1.93;1.83;;;4.00;99.90;;;;;;5073843;28;20194;-74
2022/01/24 09:21:48;;;;;;;0.90;0.80;;;4.00;99.90;;;;;;5072807;28;20184;-74
2022/01/24 09:24:13;;;;;;;1.60;1.60;;;4.00;99.90;;;;;;5073377;28;20716;-75
2022/01/24 09:26:39;;;;;;;0.83;0.83;;;4.20;99.90;;;;;;5077763;28;20206;-75
2022/01/24 09:29:05;;;;;;;1.37;1.37;;;4.30;99.90;;;;;;5070451;28;20667;-75
2022/01/24 09:31:30;;;;;;;2.43;2.27;;;4.40;99.90;;;;;;5082114;28;20187;-75
2022/01/24 09:33:56;;;;;;;2.07;1.97;;;4.60;99.90;;;;;;5141642;22;20242;-77
2022/01/24 09:36:23;;;;;;;0.30;0.30;;;4.80;99.90;;;;;;5090412;28;20258;-76
2022/01/24 09:38:49;;;;;;;1.53;1.43;;;4.80;99.90;;;;;;5084865;28;20561;-77
2022/01/24 09:41:15;;;;;;;2.43;1.70;;;5.00;99.90;;;;;;5080448;28;20175;-77
2022/01/24 09:43:43;;;;;;;2.53;0.40;;;4.90;99.90;;;;;;5073118;28;20390;-77
2022/01/24 09:46:09;;;;;;;0.87;0.87;;;5.00;99.90;;;;;;5067492;28;20180;-78
2022/01/24 09:48:38;;;;;;;0.33;0.33;;;5.00;99.90;;;;;;5093492;28;20180;-77
2022/01/24 09:51:03;;;;;;;1.37;1.20;;;5.10;99.90;;;;;;5074503;28;20182;-78
2022/01/24 09:53:30;;;;;;;0.80;0.80;;;5.10;99.90;;;;;;5092481;28;20176;-78
2022/01/24 09:55:55;;;;;;;0.20;0.20;;;5.00;99.90;;;;;;5096352;28;20172;-78
2022/01/24 09:58:21;;;;;;;0.10;0.10;;;4.90;99.90;;;;;;5096692;28;20191;-78
2022/01/24 10:00:47;;;;;;;1.43;1.37;;;4.90;99.90;;;;;;5096089;28;20194;-77
2022/01/24 10:03:13;;;;;;;0.90;0.90;;;5.00;99.90;;;;;;5096366;28;20697;-77
2022/01/24 10:05:42;;;;;;;0.83;0.83;;;4.90;99.90;;;;;;5083709;28;20242;-78
2022/01/24 10:08:14;;;;;;;0.87;0.73;;;4.90;99.90;;;;;;5076963;28;20317;-78
2022/01/24 10:10:47;;;;;;;0.67;0.67;;;4.90;99.90;;;;;;5095923;28;20181;-77
2022/01/24 10:16:35;;;;;;;0.30;0.30;;;5.00;99.90;;;;;;5096920;28;20267;-77
2022/01/24 10:19:10;;;;;;;0.40;0.40;;;5.00;99.90;;;;;;5094730;28;20246;-76
2022/01/24 10:21:39;;;;;;;1.50;1.10;;;4.90;99.90;;;;;;5078216;28;20842;-74
2022/01/24 10:24:05;;;;;;;0.10;0.10;;;4.80;99.90;;;;;;5077064;28;20196;-76
2022/01/24 10:26:31;;;;;;;0.43;0.43;;;4.80;99.90;;;;;;5076966;28;20230;-75
2022/01/24 10:28:56;;;;;;;0.73;0.30;;;4.90;99.90;;;;;;5092453;28;20218;-76
2022/01/24 10:31:28;;;;;;;1.40;0.67;;;4.90;99.90;;;;;;5098989;28;20653;-74
2022/01/24 10:34:06;;;;;;;0.40;0.40;;;5.10;99.90;;;;;;5098354;28;20215;-75
2022/01/24 10:36:41;;;;;;;0.27;0.27;;;5.20;99.90;;;;;;5096471;28;20727;-77
2022/01/24 10:39:13;;;;;;;1.17;0.60;;;5.20;99.90;;;;;;5082734;28;20581;-75
2022/01/24 10:41:57;;;;;;;0.40;0.40;;;5.30;99.90;;;;;;5096021;28;20184;-75
2022/01/24 10:44:31;;;;;;;0.83;0.83;;;5.50;99.90;;;;;;5095501;28;20231;-75
2022/01/24 10:47:15;;;;;;;0.20;0.20;;;5.70;99.90;;;;;;5077062;28;20234;-75
2022/01/24 10:49:41;;;;;;;1.50;1.50;;;5.50;99.90;;;;;;5082586;28;20176;-77
2022/01/24 10:52:19;;;;;;;1.70;0.40;;;5.70;99.90;;;;;;5096148;28;20168;-76
2022/01/24 10:54:46;;;;;;;1.40;1.30;;;5.80;99.90;;;;;;5093794;28;20192;-76
2022/01/24 10:57:26;;;;;;;0.60;0.60;;;5.80;99.90;;;;;;5086475;28;20194;-76
2022/01/24 11:00:03;;;;;;;5.30;1.63;;;5.70;99.90;;;;;;5073325;28;20176;-76
2022/01/24 11:02:36;;;;;;;4.33;2.23;;;5.80;99.90;;;;;;5089819;28;20821;-75
2022/01/24 11:05:17;;;;;;;2.37;2.13;;;5.80;99.90;;;;;;5083105;28;20195;-76
2022/01/24 11:07:57;;;;;;;4.93;2.70;;;5.80;99.90;;;;;;5077942;28;20221;-75
2022/01/24 11:10:28;;;;;;;1.40;1.30;;;5.70;99.90;;;;;;5066601;28;20551;-75
2022/01/24 11:12:54;;;;;;;2.83;1.87;;;5.40;99.90;;;;;;5071139;28;20662;-75
2022/01/24 11:15:24;;;;;;;1.33;1.33;;;5.40;99.90;;;;;;5069153;28;20229;-76
2022/01/24 11:17:51;;;;;;;0.97;0.97;;;5.40;99.90;;;;;;5059115;28;20199;-76
2022/01/24 11:20:18;;;;;;;0.73;0.73;;;5.20;99.90;;;;;;5057147;28;20180;-75
2022/01/24 11:22:58;;;;;;;0.73;0.73;;;5.30;99.90;;;;;;5076614;28;20258;-75
2022/01/24 11:25:25;;;;;;;0.47;0.47;;;5.30;99.90;;;;;;5082459;28;20196;-75
2022/01/24 11:27:51;;;;;;;0.60;0.60;;;5.00;99.90;;;;;;5088048;28;20544;-75
2022/01/24 11:30:40;;;;;;;0.87;0.87;;;5.00;99.90;;;;;;5089299;28;20186;-75
2022/01/24 11:33:12;;;;;;;0.60;0.60;;;5.00;99.90;;;;;;5067649;28;20644;-76
2022/01/24 11:35:54;;;;;;;0.73;0.60;;;5.30;99.90;;;;;;5080646;28;20690;-74
2022/01/24 11:38:33;;;;;;;1.97;1.83;;;5.50;99.90;;;;;;5083109;28;20258;-75
2022/01/24 11:41:03;;;;;;;1.70;0.70;;;5.40;99.90;;;;;;5096300;28;20159;-75
2022/01/24 11:43:33;;;;;;;1.40;1.40;;;5.40;99.90;;;;;;5061652;28;20176;-75
2022/01/24 11:46:08;;;;;;;1.10;1.10;;;5.50;99.90;;;;;;5086296;28;20221;-75
2022/01/24 11:48:36;;;;;;;1.67;1.57;;;5.50;99.90;;;;;;5079511;28;20241;-75
2022/01/24 11:51:10;;;;;;;0.30;0.30;;;5.40;99.90;;;;;;5069827;28;20190;-75
2022/01/24 11:53:43;;;;;;;1.87;1.57;;;5.30;99.90;;;;;;5091327;28;20252;-75
2022/01/24 11:56:26;;;;;;;0.57;0.57;;;5.30;99.90;;;;;;5075719;28;20207;-75
2022/01/24 11:59:22;;;;;;;1.40;1.40;;;5.30;99.90;;;;;;5074590;28;20175;-75
2022/01/24 12:02:04;;;;;;;0.60;0.60;;;5.30;99.90;;;;;;5081892;28;20168;-75
2022/01/24 12:04:49;;;;;;;0.27;0.27;;;5.30;99.90;;;;;;5093703;28;20196;-75
2022/01/24 12:07:17;;;;;;;1.23;1.23;;;5.30;99.90;;;;;;5076778;28;20338;-75
2022/01/24 12:09:42;;;;;;;1.57;1.47;;;5.40;99.90;;;;;;5093782;28;20200;-75
2022/01/24 12:12:36;;;;;;;0.20;0.20;;;5.30;99.90;;;;;;5076701;28;20713;-75
2022/01/24 12:15:03;;;;;;;0.63;0.63;;;5.30;99.90;;;;;;5084303;28;20195;-76
2022/01/24 12:17:50;;;;;;;3.60;3.40;;;5.30;99.90;;;;;;5081788;28;20187;-75
2022/01/24 12:20:55;;;;;;;4.37;1.37;;;5.40;99.90;;;;;;5077228;28;20172;-75
2022/01/24 12:23:24;;;;;;;1.60;1.57;;;5.40;99.90;;;;;;5033503;28;20528;-74
2022/01/24 12:25:57;;;;;;;10.00;1.17;;;5.50;99.90;;;;;;5080617;28;20670;-75
2022/01/24 12:28:33;;;;;;;1.50;1.40;;;5.40;99.90;;;;;;5101435;28;20195;-75
2022/01/24 12:31:39;;;;;;;1.53;1.43;;;5.40;99.90;;;;;;5078014;28;20597;-76
2022/01/24 12:34:26;;;;;;;0.47;0.47;;;5.30;99.90;;;;;;5098862;28;20225;-75
2022/01/24 12:37:04;;;;;;;0.73;0.73;;;5.30;99.90;;;;;;5097071;28;20750;-76
2022/01/24 12:39:46;;;;;;;1.00;0.93;;;5.30;99.90;;;;;;5098699;28;20187;-75
2022/01/24 12:42:24;;;;;;;1.37;1.27;;;5.30;99.90;;;;;;5084779;28;20258;-74
2022/01/24 12:47:21;;;;;;;1.10;1.10;;;5.10;99.90;;;;;;5082440;28;20199;-75
2022/01/24 12:49:50;;;;;;;1.53;1.50;;;5.20;99.90;;;;;;5080346;28;20194;-74
2022/01/24 12:52:19;;;;;;;1.37;1.27;;;5.20;99.90;;;;;;5094819;28;20183;-75
2022/01/24 12:54:48;;;;;;;0.30;0.30;;;5.20;99.90;;;;;;5095328;28;20195;-76
2022/01/24 12:57:18;;;;;;;2.10;2.00;;;5.20;99.90;;;;;;5095805;28;20164;-75
2022/01/24 13:00:15;;;;;;;3.87;1.83;;;5.20;99.90;;;;;;5073635;28;20176;-75
2022/01/24 13:02:41;;;;;;;1.03;1.03;;;5.20;99.90;;;;;;5066430;28;20188;-75
2022/01/24 13:05:11;;;;;;;0.30;0.30;;;5.30;99.90;;;;;;5087816;28;20644;-75
2022/01/24 13:07:38;;;;;;;0.37;0.37;;;5.20;99.90;;;;;;5063689;28;20571;-76
2022/01/24 13:10:16;;;;;;;2.73;1.63;;;5.20;99.90;;;;;;5085547;28;20168;-77
2022/01/24 13:12:43;;;;;;;1.33;1.23;;;5.20;99.90;;;;;;5063777;28;20196;-77
2022/01/24 13:15:27;;;;;;;1.67;1.60;;;5.30;99.90;;;;;;5096383;28;20274;-76
2022/01/24 13:21:07;;;;;;;0.50;0.50;;;5.40;99.90;;;;;;5095636;28;20692;-74
2022/01/24 13:23:33;;;;;;;1.57;1.40;;;5.30;99.90;;;;;;5087533;28;20646;-75
2022/01/24 13:25:59;;;;;;;0.60;0.60;;;5.30;99.90;;;;;;5080628;28;20183;-76
2022/01/24 13:28:24;;;;;;;1.13;1.03;;;5.30;99.90;;;;;;5075292;28;20686;-75
2022/01/24 13:30:59;;;;;;;1.37;1.30;;;;;;;;;;5081131;28;20674;-75
2022/01/24 13:33:27;;;;;;;0.57;0.57;;;5.20;99.90;;;;;;5094654;28;20190;-74
2022/01/24 13:36:16;;;;;;;0.43;0.43;;;5.30;99.90;;;;;;5091260;28;20192;-76
2022/01/24 13:38:47;;;;;;;1.33;1.10;;;5.30;99.90;;;;;;5086398;28;20225;-75
2022/01/24 13:41:20;;;;;;;0.30;0.30;;;5.30;99.90;;;;;;5095775;28;20164;-75
2022/01/24 13:43:45;;;;;;;1.17;1.17;;;5.20;99.90;;;;;;5089280;28;20199;-75
2022/01/24 13:46:20;;;;;;;1.57;0.70;;;5.20;99.90;;;;;;5085998;28;20167;-75
2022/01/24 13:49:01;;;;;;;1.03;1.03;;;5.20;99.90;;;;;;5094421;28;20258;-74
2022/01/24 13:51:46;;;;;;;0.30;0.30;;;5.10;99.90;;;;;;5093568;28;20702;-75
2022/01/24 13:54:34;;;;;;;2.37;1.03;;;5.10;99.90;;;;;;5075025;28;20203;-75
2022/01/24 13:57:05;;;;;;;1.80;1.33;;;5.10;99.90;;;;;;5062647;28;20308;-75
2022/01/24 13:59:32;;;;;;;1.03;1.03;;;5.10;99.90;;;;;;5092389;28;20191;-76
2022/01/24 14:02:09;;;;;;;4.13;2.38;;;5.10;99.90;;;;;;5080647;28;20398;-75
2022/01/24 14:04:53;;;;;;;0.43;0.43;;;5.10;99.90;;;;;;5091055;28;20196;-75
2022/01/24 14:07:30;;;;;;;1.87;1.77;;;5.20;99.90;;;;;;5085960;28;20232;-75
2022/01/24 14:10:00;;;;;;;1.37;1.37;;;5.30;99.90;;;;;;5081448;28;20175;-75
2022/01/24 14:12:29;;;;;;;0.63;0.63;;;5.40;99.90;;;;;;5092051;28;20639;-74
2022/01/24 14:15:03;;;;;;;2.23;2.10;;;5.40;99.90;;;;;;5055058;28;20261;-75
2022/01/24 14:17:37;;;;;;;0.40;0.40;;;5.50;99.90;;;;;;5066351;28;20179;-73
2022/01/24 14:20:09;;;;;;;0.80;0.80;;;5.40;99.90;;;;;;5065144;28;20194;-77
2022/01/24 14:22:41;;;;;;;0.53;0.53;;;5.40;99.90;;;;;;5086006;28;20179;-76
2022/01/24 14:25:15;;;;;;;1.07;1.07;;;5.40;99.90;;;;;;5069451;28;20771;-74
2022/01/24 14:27:47;;;;;;;1.83;1.30;;;5.40;99.90;;;;;;5087565;28;20201;-74
2022/01/24 14:30:40;;;;;;;0.73;0.73;;;5.40;99.90;;;;;;5088248;28;20195;-76
2022/01/24 14:33:13;;;;;;;0.80;0.80;;;5.40;99.90;;;;;;5086646;28;20612;-76
2022/01/24 14:35:48;;;;;;;3.93;2.70;;;5.30;99.90;;;;;;5067390;28;20223;-75
2022/01/24 14:38:32;;;;;;;7.33;2.90;;;5.40;99.90;;;;;;5084918;28;20207;-77
2022/01/24 14:41:02;;;;;;;0.20;0.20;;;5.30;99.90;;;;;;5089619;28;20216;-75
2022/01/24 14:46:17;;;;;;;2.20;2.07;;;5.70;99.90;;;;;;5090623;28;20186;-76
2022/01/24 14:48:45;;;;;;;2.10;2.00;;;5.60;99.90;;;;;;5074234;28;20179;-79
2022/01/24 14:51:11;;;;;;;2.20;2.00;;;5.40;99.90;;;;;;5089432;28;20186;-76
2022/01/24 14:53:37;;;;;;;2.03;1.83;;;5.30;99.90;;;;;;5094164;28;20176;-76
2022/01/24 14:56:03;;;;;;;1.50;1.40;;;5.20;99.90;;;;;;5095464;28;20274;-75
2022/01/24 14:58:28;;;;;;;0.77;0.77;;;5.10;99.90;;;;;;5076867;28;20192;-74
2022/01/24 15:00:54;;;;;;;1.43;1.40;;;5.10;99.90;;;;;;5074689;28;20168;-77
2022/01/24 15:03:19;;;;;;;3.93;1.37;;;5.10;99.90;;;;;;5091684;28;20713;-76